createdAt,value
2023-02-06T00:01:58.093Z,97476.03
2023-02-06T00:07:00.820Z,97469.50
2023-02-06T00:12:03.134Z,97461.59
2023-02-06T00:17:05.472Z,97467.88
2023-02-06T00:22:07.756Z,97468.06
2023-02-06T00:27:10.126Z,97484.69
2023-02-06T00:32:12.507Z,97488.47
2023-02-06T00:37:17.411Z,97485.38
2023-02-06T00:42:20.090Z,97481.88
2023-02-06T00:47:22.424Z,97487.91
2023-02-06T00:52:24.746Z,97478.66
2023-02-06T00:57:27.144Z,97471.25
2023-02-06T01:02:29.598Z,97483.69
2023-02-06T01:07:31.985Z,97483.94
2023-02-06T01:12:34.373Z,97490.03
2023-02-06T01:17:36.789Z,97500.25
2023-02-06T01:22:39.080Z,97495.97
2023-02-06T01:27:41.531Z,97496.81
2023-02-06T01:32:43.953Z,97482.63
2023-02-06T01:37:46.301Z,97477.97
2023-02-06T01:42:48.830Z,97479.78
2023-02-06T01:47:51.241Z,97493.28
2023-02-06T01:52:53.557Z,97494.78
2023-02-06T01:57:55.867Z,97491.53
2023-02-06T02:02:58.133Z,97480.41
2023-02-06T02:08:02.015Z,97487.19
2023-02-06T02:13:04.294Z,97470.50
2023-02-06T02:18:06.871Z,97466.13
2023-02-06T02:23:09.219Z,97469.25
2023-02-06T02:28:11.564Z,97486.81
2023-02-06T02:33:13.879Z,97492.41
2023-02-06T02:38:16.134Z,97482.81
2023-02-06T02:43:18.452Z,97460.78
2023-02-06T02:48:20.756Z,97456.69
2023-02-06T02:53:23.022Z,97461.94
2023-02-06T02:58:25.315Z,97460.72
2023-02-06T03:03:28.843Z,97467.81
2023-02-06T03:08:31.127Z,97474.38
2023-02-06T03:13:33.526Z,97472.63
2023-02-06T03:18:35.952Z,97473.19
2023-02-06T03:23:38.329Z,97476.34
2023-02-06T03:28:40.611Z,97478.31
2023-02-06T03:33:42.911Z,97481.88
2023-02-06T03:38:45.242Z,97487.06
2023-02-06T03:43:47.552Z,97493.44
2023-02-06T03:48:49.849Z,97501.59
2023-02-06T03:53:52.141Z,97509.00
2023-02-06T03:58:54.527Z,97522.25
2023-02-06T04:03:56.827Z,97515.03
2023-02-06T04:08:59.131Z,97514.78
2023-02-06T04:14:01.422Z,97518.78
2023-02-06T04:19:03.716Z,97503.84
2023-02-06T04:24:05.985Z,97491.78
2023-02-06T04:29:08.351Z,97490.38
2023-02-06T04:34:10.696Z,97482.09
2023-02-06T04:39:13.174Z,97474.69
2023-02-06T04:44:15.505Z,97463.59
2023-02-06T04:49:17.828Z,97458.75
2023-02-06T04:54:20.201Z,97462.38
2023-02-06T04:59:22.625Z,97473.91
2023-02-06T05:04:24.997Z,97473.81
2023-02-06T05:09:27.319Z,97484.50
2023-02-06T05:14:29.711Z,97476.28
2023-02-06T05:19:32.007Z,97478.59
2023-02-06T05:24:34.463Z,97472.09
2023-02-06T05:29:36.871Z,97464.34
2023-02-06T05:34:39.420Z,97459.34
2023-02-06T05:39:42.067Z,97449.97
2023-02-06T05:44:44.483Z,97456.31
2023-02-06T05:49:48.197Z,97452.03
2023-02-06T05:54:50.557Z,97452.47
2023-02-06T05:59:52.930Z,97453.44
2023-02-06T06:04:55.258Z,97445.41
2023-02-06T06:09:57.548Z,97438.44
2023-02-06T06:14:59.839Z,97445.69
2023-02-06T06:20:02.201Z,97449.72
2023-02-06T06:25:06.617Z,97457.47
2023-02-06T06:30:08.903Z,97462.81
2023-02-06T06:35:11.256Z,97460.25
2023-02-06T06:40:33.856Z,97455.84
2023-02-06T06:45:36.416Z,97455.72
2023-02-06T06:50:38.831Z,97458.38
2023-02-06T06:55:41.145Z,97464.19
2023-02-06T07:00:43.491Z,97448.28
2023-02-06T07:05:45.989Z,97463.94
2023-02-06T07:10:48.300Z,97471.03
2023-02-06T07:15:50.696Z,97471.59
2023-02-06T07:20:52.990Z,97466.41
2023-02-06T07:25:56.489Z,97466.28
2023-02-06T07:30:58.913Z,97473.88
2023-02-06T07:36:03.870Z,97465.69
2023-02-06T07:41:06.512Z,97480.63
2023-02-06T07:46:08.886Z,97470.56
2023-02-06T07:51:11.190Z,97473.88
2023-02-06T07:56:13.593Z,97480.53
2023-02-06T08:01:15.978Z,97474.63
2023-02-06T08:06:18.352Z,97483.13
2023-02-06T08:11:20.706Z,97493.06
2023-02-06T08:16:24.325Z,97496.63
2023-02-06T08:21:26.766Z,97500.66
2023-02-06T08:26:29.138Z,97499.72
2023-02-06T08:31:31.738Z,97495.06
2023-02-06T08:36:34.171Z,97496.81
2023-02-06T08:41:37.441Z,97488.56
2023-02-06T08:46:39.832Z,97496.09
2023-02-06T08:51:42.231Z,97495.16
2023-02-06T08:56:44.812Z,97495.75
2023-02-06T09:01:49.140Z,97487.47
2023-02-06T09:06:52.185Z,97483.03
2023-02-06T09:11:55.485Z,97494.84
2023-02-06T09:16:58.346Z,97485.44
2023-02-06T09:22:00.746Z,97489.56
2023-02-06T09:27:03.074Z,97492.94
2023-02-06T09:32:05.366Z,97497.03
2023-02-06T09:37:07.734Z,97480.34
2023-02-06T09:42:11.172Z,97482.28
2023-02-06T09:47:13.524Z,97490.34
2023-02-06T09:52:15.882Z,97482.06
2023-02-06T09:57:18.189Z,97464.38
2023-02-06T10:02:20.560Z,97459.63
2023-02-06T10:07:23.049Z,97464.06
2023-02-06T10:12:25.436Z,97461.50
2023-02-06T10:17:27.815Z,97456.13
2023-02-06T10:22:30.236Z,97437.75
2023-02-06T10:27:32.607Z,97435.47
2023-02-06T10:32:35.017Z,97415.53
2023-02-06T10:37:37.354Z,97424.19
2023-02-06T10:42:39.724Z,97403.91
2023-02-06T10:47:42.064Z,97389.28
2023-02-06T10:52:44.451Z,97385.16
2023-02-06T10:57:47.013Z,97389.47
2023-02-06T11:03:05.409Z,97372.63
2023-02-06T11:08:09.398Z,97369.19
2023-02-06T11:13:11.784Z,97352.47
2023-02-06T11:18:14.170Z,97342.53
2023-02-06T11:23:16.699Z,97343.72
2023-02-06T11:28:19.239Z,97337.84
2023-02-06T11:33:21.546Z,97332.31
2023-02-06T11:38:24.161Z,97319.97
2023-02-06T11:43:26.553Z,97324.81
2023-02-06T11:48:29.152Z,97317.78
2023-02-06T11:53:31.760Z,97316.25
2023-02-06T11:58:34.125Z,97301.03
2023-02-06T12:03:36.533Z,97296.38
2023-02-06T12:08:38.919Z,97294.63
2023-02-06T12:13:41.284Z,97285.88
2023-02-06T12:18:44.390Z,97296.97
2023-02-06T12:23:46.800Z,97315.59
2023-02-06T12:28:49.193Z,97310.88
2023-02-06T12:33:54.714Z,97300.81
2023-02-06T12:38:57.384Z,97305.47
2023-02-06T12:43:59.746Z,97273.13
2023-02-06T12:49:02.079Z,97254.63
2023-02-06T12:54:04.416Z,97240.69
2023-02-06T12:59:06.750Z,97239.78
2023-02-06T13:04:09.144Z,97246.75
2023-02-06T13:09:11.430Z,97241.13
2023-02-06T13:14:13.796Z,97246.09
2023-02-06T13:19:16.069Z,97249.81
2023-02-06T13:24:18.316Z,97257.97
2023-02-06T13:29:20.604Z,97264.91
2023-02-06T13:34:22.903Z,97270.19
2023-02-06T13:39:25.223Z,97278.72
2023-02-06T13:44:27.517Z,97282.34
2023-02-06T13:49:29.804Z,97280.19
2023-02-06T13:54:32.087Z,97272.78
2023-02-06T13:59:34.433Z,97275.44
2023-02-06T14:04:36.818Z,97273.31
2023-02-06T14:09:45.011Z,97272.50
2023-02-06T14:14:47.359Z,97257.47
2023-02-06T14:19:49.699Z,97251.38
2023-02-06T14:24:52.012Z,97255.66
2023-02-06T14:29:54.420Z,97258.00
2023-02-06T14:34:56.750Z,97252.06
2023-02-06T14:40:04.487Z,97239.50
2023-02-06T14:45:07.087Z,97232.91
2023-02-06T14:50:09.437Z,97233.25
2023-02-06T14:55:11.851Z,97239.97
2023-02-06T15:00:14.215Z,97220.41
2023-02-06T15:05:16.597Z,97216.75
2023-02-06T15:10:19.047Z,97225.00
2023-02-06T15:15:21.490Z,97215.44
2023-02-06T15:20:23.880Z,97225.00
2023-02-06T15:25:26.419Z,97228.13
2023-02-06T15:30:29.002Z,97222.53
2023-02-06T15:35:31.514Z,97224.16
2023-02-06T15:40:34.034Z,97227.28
2023-02-06T15:45:36.548Z,97230.44
2023-02-06T15:50:39.048Z,97215.59
2023-02-06T15:55:41.619Z,97215.44
2023-02-06T16:00:44.021Z,97211.63
2023-02-06T16:05:46.329Z,97221.38
2023-02-06T16:10:48.658Z,97219.56
2023-02-06T16:15:50.993Z,97223.31
2023-02-06T16:20:53.340Z,97228.28
2023-02-06T16:25:55.761Z,97248.06
2023-02-06T16:30:58.182Z,97257.97
2023-02-06T16:36:00.565Z,97265.19
2023-02-06T16:41:02.951Z,97274.91
2023-02-06T16:46:05.398Z,97284.66
2023-02-06T16:51:10.280Z,97291.91
2023-02-06T16:56:12.724Z,97296.16
2023-02-06T17:01:15.184Z,97296.66
2023-02-06T17:06:17.572Z,97312.16
2023-02-06T17:11:19.971Z,97314.44
2023-02-06T17:16:22.376Z,97338.03
2023-02-06T17:21:24.781Z,97338.72
2023-02-06T17:26:27.247Z,97339.38
2023-02-06T17:31:29.779Z,97328.81
2023-02-06T17:36:33.326Z,97325.47
2023-02-06T17:41:36.340Z,97319.53
2023-02-06T17:46:38.733Z,97322.47
2023-02-06T17:51:41.208Z,97326.94
2023-02-06T17:56:43.694Z,97328.53
2023-02-06T18:01:46.111Z,97329.06
2023-02-06T18:06:48.828Z,97318.00
2023-02-06T18:11:51.163Z,97336.91
2023-02-06T18:16:53.528Z,97336.44
2023-02-06T18:21:55.843Z,97334.25
2023-02-06T18:26:58.186Z,97342.19
2023-02-06T18:32:00.508Z,97324.66
2023-02-06T18:37:02.928Z,97308.56
2023-02-06T18:42:22.995Z,97318.78
2023-02-06T18:47:25.371Z,97317.38
2023-02-06T18:52:28.068Z,97315.25
2023-02-06T18:57:30.488Z,97313.78
2023-02-06T19:02:32.834Z,97320.31
2023-02-06T19:07:35.312Z,97306.47
2023-02-06T19:12:37.600Z,97307.22
2023-02-06T19:17:42.213Z,97316.84
2023-02-06T19:22:44.602Z,97318.06
2023-02-06T19:27:46.993Z,97331.63
2023-02-06T19:32:51.420Z,97342.72
2023-02-06T19:37:53.809Z,97348.72
2023-02-06T19:42:56.148Z,97352.25
2023-02-06T19:47:58.526Z,97338.34
2023-02-06T19:53:00.968Z,97333.97
2023-02-06T19:58:03.435Z,97330.97
2023-02-06T20:03:05.968Z,97325.31
2023-02-06T20:08:08.438Z,97336.59
2023-02-06T20:13:10.818Z,97350.50
2023-02-06T20:18:13.370Z,97349.50
2023-02-06T20:23:16.000Z,97342.88
2023-02-06T20:28:18.495Z,97334.31
2023-02-06T20:33:20.840Z,97345.41
2023-02-06T20:38:23.254Z,97373.81
2023-02-06T20:43:26.429Z,97362.09
2023-02-06T20:48:29.368Z,97369.72
2023-02-06T20:53:31.872Z,97361.19
2023-02-06T20:58:34.276Z,97369.91
2023-02-06T21:03:56.930Z,97377.94
2023-02-06T21:09:19.585Z,97385.00
2023-02-06T21:14:43.001Z,97384.44
2023-02-06T21:19:45.367Z,97388.47
2023-02-06T21:24:47.707Z,97383.38
2023-02-06T21:29:50.094Z,97379.81
2023-02-06T21:34:52.523Z,97379.56
2023-02-06T21:39:55.114Z,97376.66
2023-02-06T21:44:57.402Z,97376.38
2023-02-06T21:49:59.849Z,97377.09
2023-02-06T21:55:02.268Z,97368.00
2023-02-06T22:00:04.683Z,97372.41
2023-02-06T22:05:07.280Z,97367.22
2023-02-06T22:10:09.608Z,97358.63
2023-02-06T22:15:11.915Z,97338.59
2023-02-06T22:20:16.285Z,97345.78
2023-02-06T22:25:18.752Z,97336.13
2023-02-06T22:30:21.166Z,97339.16
2023-02-06T22:35:23.649Z,97326.50
2023-02-06T22:40:25.974Z,97311.84
2023-02-06T22:45:28.609Z,97311.84
2023-02-06T22:50:30.931Z,97330.19
2023-02-06T22:55:47.151Z,97348.03
2023-02-06T23:00:49.583Z,97357.00
2023-02-06T23:05:52.004Z,97369.31
2023-02-06T23:10:54.476Z,97381.34
2023-02-06T23:15:56.867Z,97391.66
2023-02-06T23:20:59.324Z,97385.59
2023-02-06T23:26:01.731Z,97396.09
2023-02-06T23:31:04.316Z,97390.28
2023-02-06T23:36:06.692Z,97410.00
2023-02-06T23:41:09.038Z,97415.66
2023-02-06T23:46:12.369Z,97430.84
2023-02-06T23:51:14.908Z,97429.88
2023-02-06T23:56:17.278Z,97434.97
